Hobbsville, North Carolina
Current Conditions -  °F | °C
As of 10:55 AM on Sunday 21 Dec 2014 (Local Time) from KEDE Reporting Station
Scattered Clouds Scattered Clouds  
Wind Chill: 39°   Ceiling: Unl
Heat Index: 43°   Visibility: 10mi
Dew Point: 30°   Wind: 8mph
Humidity: 60%   Direction: 40°NE
Pressure: 30.34"   Gusts: NA
Location:  36.35°N, 76.6°W
Report Text: KEDE 211555Z AUTO 04007KT 10SM SCT070 06/M01 A3034 RMK AO2 T00631009
Loading
Personal Weather Stations






























Interactive Weather Map New forecast layout! Learn more

10-Day Weather Forecast

Advertisements
Track Severe Weather on mobile